sensor_id;sensor_type;location;lat;lon;timestamp;pressure;altitude;pressure_sealevel;temperature;humidity
50125;BME280;36023;48.670;6.184;2022-10-28T00:00:53;99531.94;;;21.01;58.01
50125;BME280;36023;48.670;6.184;2022-10-28T00:03:19;99538.88;;;21.02;58.20
50125;BME280;36023;48.670;6.184;2022-10-28T00:05:45;99525.72;;;21.02;57.97
50125;BME280;36023;48.670;6.184;2022-10-28T00:08:12;99523.09;;;21.02;58.04
50125;BME280;36023;48.670;6.184;2022-10-28T00:10:37;99534.47;;;21.03;58.00
50125;BME280;36023;48.670;6.184;2022-10-28T00:13:04;99531.00;;;21.02;58.11
50125;BME280;36023;48.670;6.184;2022-10-28T00:15:32;99532.69;;;21.03;57.99
50125;BME280;36023;48.670;6.184;2022-10-28T00:17:58;99525.72;;;21.02;57.79
50125;BME280;36023;48.670;6.184;2022-10-28T00:20:25;99520.44;;;21.02;57.89
50125;BME280;36023;48.670;6.184;2022-10-28T00:22:51;99512.47;;;21.04;58.02
50125;BME280;36023;48.670;6.184;2022-10-28T00:25:16;99513.50;;;21.01;57.87
50125;BME280;36023;48.670;6.184;2022-10-28T00:27:49;99505.41;;;21.04;57.96
50125;BME280;36023;48.670;6.184;2022-10-28T00:30:14;99500.31;;;21.01;57.81
50125;BME280;36023;48.670;6.184;2022-10-28T00:32:40;99507.19;;;21.04;57.82
50125;BME280;36023;48.670;6.184;2022-10-28T00:35:06;99510.75;;;21.03;57.84
50125;BME280;36023;48.670;6.184;2022-10-28T00:37:32;99506.34;;;21.03;57.66
50125;BME280;36023;48.670;6.184;2022-10-28T00:39:58;99506.34;;;21.03;57.67
50125;BME280;36023;48.670;6.184;2022-10-28T00:42:23;99508.88;;;21.05;57.71
50125;BME280;36023;48.670;6.184;2022-10-28T00:44:57;99506.25;;;21.05;57.51
50125;BME280;36023;48.670;6.184;2022-10-28T00:47:31;99496.66;;;21.04;57.70
50125;BME280;36023;48.670;6.184;2022-10-28T00:50:27;99493.19;;;21.03;57.53
50125;BME280;36023;48.670;6.184;2022-10-28T00:52:52;99480.94;;;21.02;57.57
50125;BME280;36023;48.670;6.184;2022-10-28T00:55:20;99488.75;;;21.04;57.46
50125;BME280;36023;48.670;6.184;2022-10-28T00:57:49;99489.59;;;21.04;57.41
50125;BME280;36023;48.670;6.184;2022-10-28T01:00:15;99486.13;;;21.04;57.38
50125;BME280;36023;48.670;6.184;2022-10-28T01:02:45;99477.38;;;21.03;57.57
50125;BME280;36023;48.670;6.184;2022-10-28T01:05:15;99471.16;;;21.04;57.46
50125;BME280;36023;48.670;6.184;2022-10-28T01:07:42;99466.94;;;21.02;57.25
50125;BME280;36023;48.670;6.184;2022-10-28T01:10:09;99462.53;;;21.02;57.47
50125;BME280;36023;48.670;6.184;2022-10-28T01:23:42;99464.31;;;21.02;57.16
50125;BME280;36023;48.670;6.184;2022-10-28T01:29:34;99459.94;;;21.01;57.20
50125;BME280;36023;48.670;6.184;2022-10-28T01:32:12;99452.94;;;21.01;57.20
50125;BME280;36023;48.670;6.184;2022-10-28T01:34:48;99448.56;;;21.00;56.93
50125;BME280;36023;48.670;6.184;2022-10-28T01:40:50;99452.03;;;21.01;57.10
50125;BME280;36023;48.670;6.184;2022-10-28T01:43:25;99443.31;;;21.00;56.91
50125;BME280;36023;48.670;6.184;2022-10-28T01:46:03;99450.28;;;21.01;56.98
50125;BME280;36023;48.670;6.184;2022-10-28T01:51:41;99445.09;;;21.00;56.78
50125;BME280;36023;48.670;6.184;2022-10-28T01:54:10;99441.59;;;20.99;56.89
50125;BME280;36023;48.670;6.184;2022-10-28T01:56:40;99446.03;;;20.99;56.74
50125;BME280;36023;48.670;6.184;2022-10-28T01:59:13;99446.88;;;20.99;56.60
50125;BME280;36023;48.670;6.184;2022-10-28T02:01:41;99445.94;;;21.00;56.76
50125;BME280;36023;48.670;6.184;2022-10-28T02:04:07;99448.56;;;21.00;56.69
50125;BME280;36023;48.670;6.184;2022-10-28T02:06:33;99446.88;;;20.99;56.65
50125;BME280;36023;48.670;6.184;2022-10-28T02:20:33;99466.94;;;21.02;56.73
50125;BME280;36023;48.670;6.184;2022-10-28T02:28:26;99457.31;;;21.01;56.73
50125;BME280;36023;48.670;6.184;2022-10-28T02:31:04;99463.38;;;21.03;56.68
50125;BME280;36023;48.670;6.184;2022-10-28T02:33:33;99467.78;;;21.02;56.56
50125;BME280;36023;48.670;6.184;2022-10-28T02:36:07;99466.94;;;21.02;56.49
50125;BME280;36023;48.670;6.184;2022-10-28T02:38:41;99464.31;;;21.02;56.56
50125;BME280;36023;48.670;6.184;2022-10-28T02:41:19;99454.63;;;21.02;56.38
50125;BME280;36023;48.670;6.184;2022-10-28T02:43:52;99449.34;;;21.02;56.49
50125;BME280;36023;48.670;6.184;2022-10-28T02:46:19;99445.03;;;21.01;56.56
50125;BME280;36023;48.670;6.184;2022-10-28T02:48:52;99458.09;;;21.03;56.61
50125;BME280;36023;48.670;6.184;2022-10-28T02:51:23;99445.78;;;21.03;56.39
50125;BME280;36023;48.670;6.184;2022-10-28T02:56:50;99437.97;;;21.02;56.45
50125;BME280;36023;48.670;6.184;2022-10-28T02:59:17;99444.09;;;21.02;56.41
50125;BME280;36023;48.670;6.184;2022-10-28T03:01:43;99446.53;;;21.05;56.61
50125;BME280;36023;48.670;6.184;2022-10-28T03:04:09;99434.31;;;21.04;56.50
50125;BME280;36023;48.670;6.184;2022-10-28T03:06:35;99422.94;;;21.04;56.32
50125;BME280;36023;48.670;6.184;2022-10-28T03:09:00;99439.66;;;21.03;56.49
50125;BME280;36023;48.670;6.184;2022-10-28T03:11:26;99429.03;;;21.04;56.48
50125;BME280;36023;48.670;6.184;2022-10-28T03:13:51;99429.88;;;21.05;56.55
50125;BME280;36023;48.670;6.184;2022-10-28T03:16:17;99430.72;;;21.05;56.39
50125;BME280;36023;48.670;6.184;2022-10-28T03:18:43;99430.81;;;21.04;56.67
50125;BME280;36023;48.670;6.184;2022-10-28T03:21:08;99436.84;;;21.06;56.55
50125;BME280;36023;48.670;6.184;2022-10-28T03:23:34;99429.88;;;21.05;56.40
50125;BME280;36023;48.670;6.184;2022-10-28T03:25:59;99422.06;;;21.03;56.36
50125;BME280;36023;48.670;6.184;2022-10-28T03:28:25;99426.41;;;21.04;56.27
50125;BME280;36023;48.670;6.184;2022-10-28T03:30:51;99432.63;;;21.03;56.51
50125;BME280;36023;48.670;6.184;2022-10-28T03:33:16;99427.34;;;21.03;56.36
50125;BME280;36023;48.670;6.184;2022-10-28T03:35:43;99423.88;;;21.03;56.36
50125;BME280;36023;48.670;6.184;2022-10-28T03:38:08;99422.06;;;21.03;56.47
50125;BME280;36023;48.670;6.184;2022-10-28T03:40:34;99427.25;;;21.05;56.31
50125;BME280;36023;48.670;6.184;2022-10-28T03:43:00;99422.06;;;21.03;56.35
50125;BME280;36023;48.670;6.184;2022-10-28T03:45:25;99411.53;;;21.03;56.54
50125;BME280;36023;48.670;6.184;2022-10-28T03:47:51;99411.53;;;21.03;56.35
50125;BME280;36023;48.670;6.184;2022-10-28T03:50:16;99407.22;;;21.02;56.46
50125;BME280;36023;48.670;6.184;2022-10-28T03:52:42;99418.59;;;21.03;56.34
50125;BME280;36023;48.670;6.184;2022-10-28T03:55:09;99398.47;;;21.02;56.30
50125;BME280;36023;48.670;6.184;2022-10-28T03:57:35;99406.28;;;21.03;56.48
50125;BME280;36023;48.670;6.184;2022-10-28T04:00:02;99405.53;;;21.01;56.46
50125;BME280;36023;48.670;6.184;2022-10-28T04:02:37;99405.44;;;21.03;56.31
50125;BME280;36023;48.670;6.184;2022-10-28T04:05:04;99409.00;;;21.02;56.30
50125;BME280;36023;48.670;6.184;2022-10-28T04:07:30;99409.00;;;21.02;56.44
50125;BME280;36023;48.670;6.184;2022-10-28T04:09:56;99415.13;;;21.02;56.23
50125;BME280;36023;48.670;6.184;2022-10-28T04:12:21;99432.72;;;21.02;56.13
50125;BME280;36023;48.670;6.184;2022-10-28T04:14:47;99430.06;;;21.02;56.31
50125;BME280;36023;48.670;6.184;2022-10-28T04:17:13;99419.44;;;21.03;56.16
50125;BME280;36023;48.670;6.184;2022-10-28T04:19:38;99418.59;;;21.03;56.38
50125;BME280;36023;48.670;6.184;2022-10-28T04:22:05;99415.13;;;21.02;56.30
50125;BME280;36023;48.670;6.184;2022-10-28T04:24:31;99408.91;;;21.03;56.24
50125;BME280;36023;48.670;6.184;2022-10-28T04:26:57;99418.59;;;21.03;56.13
50125;BME280;36023;48.670;6.184;2022-10-28T04:29:23;99418.59;;;21.03;56.17
50125;BME280;36023;48.670;6.184;2022-10-28T04:31:48;99419.44;;;21.03;56.15
50125;BME280;36023;48.670;6.184;2022-10-28T04:34:14;99408.16;;;21.01;56.14
50125;BME280;36023;48.670;6.184;2022-10-28T04:36:39;99429.03;;;21.04;56.11
50125;BME280;36023;48.670;6.184;2022-10-28T04:39:05;99423.78;;;21.04;56.07
50125;BME280;36023;48.670;6.184;2022-10-28T04:41:31;99424.81;;;21.02;56.31
50125;BME280;36023;48.670;6.184;2022-10-28T04:43:56;99427.34;;;21.03;56.22
50125;BME280;36023;48.670;6.184;2022-10-28T04:46:22;99420.38;;;21.02;56.17
50125;BME280;36023;48.670;6.184;2022-10-28T04:48:48;99429.13;;;21.03;55.96
50125;BME280;36023;48.670;6.184;2022-10-28T04:51:13;99414.19;;;21.03;56.16
50125;BME280;36023;48.670;6.184;2022-10-28T04:53:39;99417.66;;;21.04;56.10
50125;BME280;36023;48.670;6.184;2022-10-28T04:56:07;99409.84;;;21.02;56.09
50125;BME280;36023;48.670;6.184;2022-10-28T04:58:34;99416.72;;;21.05;55.83
50125;BME280;36023;48.670;6.184;2022-10-28T05:01:07;99425.56;;;21.04;56.11
50125;BME280;36023;48.670;6.184;2022-10-28T05:03:33;99425.66;;;21.02;56.02
50125;BME280;36023;48.670;6.184;2022-10-28T05:06:00;99426.50;;;21.03;55.98
50125;BME280;36023;48.670;6.184;2022-10-28T05:08:26;99428.19;;;21.04;56.13
50125;BME280;36023;48.670;6.184;2022-10-28T05:10:52;99423.78;;;21.04;56.07
50125;BME280;36023;48.670;6.184;2022-10-28T05:13:18;99429.88;;;21.05;55.79
50125;BME280;36023;48.670;6.184;2022-10-28T05:15:46;99420.19;;;21.05;55.86
50125;BME280;36023;48.670;6.184;2022-10-28T05:18:12;99424.53;;;21.06;55.86
50125;BME280;36023;48.670;6.184;2022-10-28T05:20:38;99426.31;;;21.06;55.94
50125;BME280;36023;48.670;6.184;2022-10-28T05:23:04;99409.66;;;21.05;55.92
50125;BME280;36023;48.670;6.184;2022-10-28T05:25:31;99417.47;;;21.07;55.71
50125;BME280;36023;48.670;6.184;2022-10-28T05:27:57;99411.53;;;21.03;55.71
50125;BME280;36023;48.670;6.184;2022-10-28T05:30:25;99404.59;;;21.02;55.75
50125;BME280;36023;48.670;6.184;2022-10-28T05:32:50;99410.69;;;21.03;55.83
50125;BME280;36023;48.670;6.184;2022-10-28T05:35:16;99407.97;;;21.04;55.90
50125;BME280;36023;48.670;6.184;2022-10-28T05:37:42;99410.59;;;21.04;55.75
50125;BME280;36023;48.670;6.184;2022-10-28T05:40:08;99407.22;;;21.02;55.74
50125;BME280;36023;48.670;6.184;2022-10-28T05:42:40;99409.66;;;21.05;55.74
50125;BME280;36023;48.670;6.184;2022-10-28T05:45:07;99406.28;;;21.03;55.75
50125;BME280;36023;48.670;6.184;2022-10-28T05:47:33;99398.38;;;21.03;55.76
50125;BME280;36023;48.670;6.184;2022-10-28T05:49:58;99387.84;;;21.03;55.65
50125;BME280;36023;48.670;6.184;2022-10-28T05:52:24;99395.75;;;21.03;55.84
50125;BME280;36023;48.670;6.184;2022-10-28T05:54:49;99394.91;;;21.03;55.58
50125;BME280;36023;48.670;6.184;2022-10-28T05:57:16;99404.59;;;21.02;55.75
50125;BME280;36023;48.670;6.184;2022-10-28T05:59:42;99401.94;;;21.02;55.58
50125;BME280;36023;48.670;6.184;2022-10-28T06:02:14;99413.44;;;21.01;55.63
50125;BME280;36023;48.670;6.184;2022-10-28T06:04:40;99416.81;;;21.03;55.75
50125;BME280;36023;48.670;6.184;2022-10-28T06:07:08;99425.66;;;21.02;55.78
50125;BME280;36023;48.670;6.184;2022-10-28T06:09:34;99427.44;;;21.02;55.54
50125;BME280;36023;48.670;6.184;2022-10-28T06:11:59;99425.66;;;21.02;55.63
50125;BME280;36023;48.670;6.184;2022-10-28T06:14:25;99441.44;;;21.02;55.61
50125;BME280;36023;48.670;6.184;2022-10-28T06:16:51;99429.22;;;21.01;55.35
50125;BME280;36023;48.670;6.184;2022-10-28T06:19:16;99424.81;;;21.02;55.21
50125;BME280;36023;48.670;6.184;2022-10-28T06:21:43;99433.63;;;21.01;55.66
50125;BME280;36023;48.670;6.184;2022-10-28T06:24:09;99437.97;;;21.02;55.56
50125;BME280;36023;48.670;6.184;2022-10-28T06:26:36;99433.56;;;21.02;55.36
50125;BME280;36023;48.670;6.184;2022-10-28T06:29:02;99428.34;;;21.01;55.58
50125;BME280;36023;48.670;6.184;2022-10-28T06:31:27;99426.59;;;21.01;55.51
50125;BME280;36023;48.670;6.184;2022-10-28T06:33:53;99426.59;;;21.01;55.57
50125;BME280;36023;48.670;6.184;2022-10-28T06:36:18;99426.59;;;21.01;55.36
50125;BME280;36023;48.670;6.184;2022-10-28T06:38:44;99425.72;;;21.01;55.36
50125;BME280;36023;48.670;6.184;2022-10-28T06:41:10;99428.34;;;21.01;55.32
50125;BME280;36023;48.670;6.184;2022-10-28T06:43:35;99425.66;;;21.02;55.25
50125;BME280;36023;48.670;6.184;2022-10-28T06:46:03;99419.53;;;21.02;55.41
50125;BME280;36023;48.670;6.184;2022-10-28T06:48:30;99432.72;;;21.02;55.25
50125;BME280;36023;48.670;6.184;2022-10-28T06:50:56;99430.06;;;21.02;55.33
50125;BME280;36023;48.670;6.184;2022-10-28T06:53:25;99433.56;;;21.02;55.25
50125;BME280;36023;48.670;6.184;2022-10-28T06:55:54;99436.19;;;21.02;55.32
50125;BME280;36023;48.670;6.184;2022-10-28T06:58:21;99437.13;;;21.01;55.38
50125;BME280;36023;48.670;6.184;2022-10-28T07:00:48;99429.22;;;21.01;55.52
50125;BME280;36023;48.670;6.184;2022-10-28T07:03:14;99430.06;;;21.02;55.24
50125;BME280;36023;48.670;6.184;2022-10-28T07:05:41;99433.56;;;21.02;55.25
50125;BME280;36023;48.670;6.184;2022-10-28T07:08:06;99436.19;;;21.02;55.09
50125;BME280;36023;48.670;6.184;2022-10-28T07:10:33;99448.50;;;21.02;55.28
50125;BME280;36023;48.670;6.184;2022-10-28T07:12:58;99441.44;;;21.02;55.04
50125;BME280;36023;48.670;6.184;2022-10-28T07:15:24;99444.94;;;21.03;54.97
50125;BME280;36023;48.670;6.184;2022-10-28T07:17:54;99440.59;;;21.02;55.26
50125;BME280;36023;48.670;6.184;2022-10-28T07:20:20;99441.44;;;21.02;55.00
50125;BME280;36023;48.670;6.184;2022-10-28T07:22:54;99447.47;;;21.04;54.96
50125;BME280;36023;48.670;6.184;2022-10-28T07:25:21;99440.59;;;21.02;54.97
50125;BME280;36023;48.670;6.184;2022-10-28T07:27:46;99448.41;;;21.03;54.91
50125;BME280;36023;48.670;6.184;2022-10-28T07:30:12;99445.88;;;21.02;55.01
50125;BME280;36023;48.670;6.184;2022-10-28T07:32:38;99452.75;;;21.04;54.94
50125;BME280;36023;48.670;6.184;2022-10-28T07:35:04;99437.88;;;21.03;54.95
50125;BME280;36023;48.670;6.184;2022-10-28T07:37:30;99443.25;;;21.02;54.94
50125;BME280;36023;48.670;6.184;2022-10-28T07:39:55;99447.56;;;21.03;55.01
50125;BME280;36023;48.670;6.184;2022-10-28T07:42:21;99451.97;;;21.02;55.13
50125;BME280;36023;48.670;6.184;2022-10-28T07:44:47;99457.25;;;21.02;54.90
50125;BME280;36023;48.670;6.184;2022-10-28T07:47:12;99464.22;;;21.03;54.96
50125;BME280;36023;48.670;6.184;2022-10-28T07:49:38;99466.00;;;21.03;54.98
50125;BME280;36023;48.670;6.184;2022-10-28T07:52:04;99457.25;;;21.02;54.96
50125;BME280;36023;48.670;6.184;2022-10-28T07:54:29;99470.41;;;21.02;54.83
50125;BME280;36023;48.670;6.184;2022-10-28T07:56:56;99468.63;;;21.03;55.02
50125;BME280;36023;48.670;6.184;2022-10-28T07:59:23;99473.91;;;21.03;54.81
50125;BME280;36023;48.670;6.184;2022-10-28T08:01:50;99462.59;;;21.01;54.72
50125;BME280;36023;48.670;6.184;2022-10-28T08:04:16;99469.56;;;21.02;54.89
50125;BME280;36023;48.670;6.184;2022-10-28T08:06:43;99466.00;;;21.03;54.96
50125;BME280;36023;48.670;6.184;2022-10-28T08:09:09;99461.59;;;21.03;54.74
50125;BME280;36023;48.670;6.184;2022-10-28T08:11:34;99459.88;;;21.02;54.91
50125;BME280;36023;48.670;6.184;2022-10-28T08:14:01;99472.88;;;21.05;54.80
50125;BME280;36023;48.670;6.184;2022-10-28T08:16:26;99481.53;;;21.07;54.91
50125;BME280;36023;48.670;6.184;2022-10-28T08:18:54;99463.03;;;21.09;54.74
50125;BME280;36023;48.670;6.184;2022-10-28T08:21:20;99467.41;;;21.08;54.66
50125;BME280;36023;48.670;6.184;2022-10-28T08:23:45;99470.03;;;21.08;54.49
50125;BME280;36023;48.670;6.184;2022-10-28T08:26:14;99462.25;;;21.07;54.51
50125;BME280;36023;48.670;6.184;2022-10-28T08:28:39;99463.19;;;21.06;54.51
50125;BME280;36023;48.670;6.184;2022-10-28T08:31:05;99467.59;;;21.05;54.74
50125;BME280;36023;48.670;6.184;2022-10-28T08:33:34;99467.59;;;21.05;54.74
50125;BME280;36023;48.670;6.184;2022-10-28T08:35:59;99464.97;;;21.05;54.52
50125;BME280;36023;48.670;6.184;2022-10-28T08:38:25;99465.81;;;21.06;54.51
50125;BME280;36023;48.670;6.184;2022-10-28T08:48:56;99477.28;;;21.05;54.56
50125;BME280;36023;48.670;6.184;2022-10-28T08:54:03;99487.81;;;21.05;54.63
50125;BME280;36023;48.670;6.184;2022-10-28T08:56:33;99480.00;;;21.03;54.61
50125;BME280;36023;48.670;6.184;2022-10-28T08:59:02;99484.34;;;21.04;54.64
50125;BME280;36023;48.670;6.184;2022-10-28T09:01:40;99486.03;;;21.05;54.55
50125;BME280;36023;48.670;6.184;2022-10-28T09:04:44;99497.41;;;21.06;54.56
50125;BME280;36023;48.670;6.184;2022-10-28T09:07:19;99478.13;;;21.05;54.55
50125;BME280;36023;48.670;6.184;2022-10-28T09:09:49;99484.25;;;21.06;54.60
50125;BME280;36023;48.670;6.184;2022-10-28T09:15:23;99493.00;;;21.06;54.37
50125;BME280;36023;48.670;6.184;2022-10-28T09:20:55;99481.53;;;21.07;54.43
50125;BME280;36023;48.670;6.184;2022-10-28T09:23:31;99492.16;;;21.06;54.44
50125;BME280;36023;48.670;6.184;2022-10-28T09:26:19;99488.56;;;21.07;54.59
50125;BME280;36023;48.670;6.184;2022-10-28T09:31:36;99501.75;;;21.07;54.40
50125;BME280;36023;48.670;6.184;2022-10-28T09:36:36;99492.00;;;21.09;54.46
50125;BME280;36023;48.670;6.184;2022-10-28T09:39:04;99498.09;;;21.09;54.47
50125;BME280;36023;48.670;6.184;2022-10-28T09:41:33;99506.84;;;21.10;54.50
50125;BME280;36023;48.670;6.184;2022-10-28T09:47:02;99510.16;;;21.13;54.52
50125;BME280;36023;48.670;6.184;2022-10-28T09:49:34;99501.41;;;21.13;54.56
50125;BME280;36023;48.670;6.184;2022-10-28T09:54:41;99518.81;;;21.15;54.46
50125;BME280;36023;48.670;6.184;2022-10-28T09:57:09;99524.88;;;21.18;54.50
50125;BME280;36023;48.670;6.184;2022-10-28T09:59:37;99519.59;;;21.18;54.57
50125;BME280;36023;48.670;6.184;2022-10-28T10:02:03;99519.59;;;21.18;54.65
50125;BME280;36023;48.670;6.184;2022-10-28T10:04:29;99530.13;;;21.18;54.63
50125;BME280;36023;48.670;6.184;2022-10-28T10:07:09;99525.72;;;21.18;54.40
50125;BME280;36023;48.670;6.184;2022-10-28T10:09:37;99543.13;;;21.21;54.61
50125;BME280;36023;48.670;6.184;2022-10-28T10:12:10;99533.53;;;21.20;54.48
50125;BME280;36023;48.670;6.184;2022-10-28T10:14:49;99530.78;;;21.21;54.63
50125;BME280;36023;48.670;6.184;2022-10-28T10:17:38;99541.16;;;21.24;54.99
50125;BME280;36023;48.670;6.184;2022-10-28T10:20:07;99543.66;;;21.27;55.24
50125;BME280;36023;48.670;6.184;2022-10-28T10:22:38;99545.25;;;21.30;55.29
50125;BME280;36023;48.670;6.184;2022-10-28T10:30:44;99546.81;;;21.34;56.19
50125;BME280;36023;48.670;6.184;2022-10-28T10:33:19;99539.84;;;21.33;56.24
50125;BME280;36023;48.670;6.184;2022-10-28T10:35:52;99545.94;;;21.33;56.27
50125;BME280;36023;48.670;6.184;2022-10-28T10:38:18;99546.81;;;21.34;56.87
50125;BME280;36023;48.670;6.184;2022-10-28T10:40:49;99546.81;;;21.34;56.56
50125;BME280;36023;48.670;6.184;2022-10-28T10:43:32;99554.69;;;21.34;56.94
50125;BME280;36023;48.670;6.184;2022-10-28T10:48:25;99545.09;;;21.33;57.17
50125;BME280;36023;48.670;6.184;2022-10-28T10:50:52;99542.47;;;21.33;57.17
50125;BME280;36023;48.670;6.184;2022-10-28T10:53:27;99533.63;;;21.34;57.28
50125;BME280;36023;48.670;6.184;2022-10-28T10:56:06;99518.75;;;21.33;57.17
50125;BME280;36023;48.670;6.184;2022-10-28T10:58:36;99520.44;;;21.34;57.43
50125;BME280;36023;48.670;6.184;2022-10-28T11:01:05;99528.34;;;21.34;57.21
50125;BME280;36023;48.670;6.184;2022-10-28T11:03:34;99531.84;;;21.34;57.44
50125;BME280;36023;48.670;6.184;2022-10-28T11:06:03;99533.53;;;21.35;57.33
50125;BME280;36023;48.670;6.184;2022-10-28T11:11:18;99531.75;;;21.36;57.52
50125;BME280;36023;48.670;6.184;2022-10-28T11:13:46;99537.00;;;21.36;57.45
50125;BME280;36023;48.670;6.184;2022-10-28T11:16:23;99536.06;;;21.37;57.33
50125;BME280;36023;48.670;6.184;2022-10-28T11:18:51;99536.91;;;21.37;57.53
50125;BME280;36023;48.670;6.184;2022-10-28T11:21:45;99536.81;;;21.39;57.36
50125;BME280;36023;48.670;6.184;2022-10-28T11:27:23;99528.00;;;21.40;57.44
50125;BME280;36023;48.670;6.184;2022-10-28T11:29:52;99529.72;;;21.41;57.64
50125;BME280;36023;48.670;6.184;2022-10-28T11:32:35;99526.13;;;21.42;57.59
50125;BME280;36023;48.670;6.184;2022-10-28T11:35:12;99526.88;;;21.44;57.46
50125;BME280;36023;48.670;6.184;2022-10-28T11:43:51;99510.88;;;21.47;57.50
50125;BME280;36023;48.670;6.184;2022-10-28T11:49:37;99515.16;;;21.50;57.58
50125;BME280;36023;48.670;6.184;2022-10-28T11:57:14;99509.69;;;21.53;57.73
50125;BME280;36023;48.670;6.184;2022-10-28T12:00:02;99516.50;;;21.57;57.86
50125;BME280;36023;48.670;6.184;2022-10-28T12:02:54;99525.06;;;21.60;58.14
50125;BME280;36023;48.670;6.184;2022-10-28T12:10:44;99513.22;;;21.67;58.33
50125;BME280;36023;48.670;6.184;2022-10-28T12:13:25;99521.03;;;21.69;58.46
50125;BME280;36023;48.670;6.184;2022-10-28T12:18:52;99512.03;;;21.73;58.89
50125;BME280;36023;48.670;6.184;2022-10-28T12:21:33;99519.63;;;21.78;58.92
50125;BME280;36023;48.670;6.184;2022-10-28T12:24:04;99516.00;;;21.80;59.29
50125;BME280;36023;48.670;6.184;2022-10-28T12:26:39;99517.69;;;21.81;59.22
50125;BME280;36023;48.670;6.184;2022-10-28T12:29:17;99505.34;;;21.82;59.28
50125;BME280;36023;48.670;6.184;2022-10-28T12:32:12;99510.44;;;21.85;59.23
50125;BME280;36023;48.670;6.184;2022-10-28T12:34:46;99514.84;;;21.84;59.18
50125;BME280;36023;48.670;6.184;2022-10-28T12:37:23;99506.84;;;21.86;59.11
50125;BME280;36023;48.670;6.184;2022-10-28T12:42:43;99508.38;;;21.90;58.92
50125;BME280;36023;48.670;6.184;2022-10-28T12:45:13;99500.56;;;21.88;58.84
50125;BME280;36023;48.670;6.184;2022-10-28T12:47:56;99502.25;;;21.89;59.10
50125;BME280;36023;48.670;6.184;2022-10-28T12:50:27;99506.59;;;21.90;58.74
50125;BME280;36023;48.670;6.184;2022-10-28T12:56:06;99506.69;;;21.89;59.23
50125;BME280;36023;48.670;6.184;2022-10-28T12:58:38;99505.00;;;21.88;59.16
50125;BME280;36023;48.670;6.184;2022-10-28T13:01:08;99497.16;;;21.86;59.06
50125;BME280;36023;48.670;6.184;2022-10-28T13:03:36;99509.41;;;21.87;59.22
50125;BME280;36023;48.670;6.184;2022-10-28T13:16:59;99492.81;;;21.85;59.45
50125;BME280;36023;48.670;6.184;2022-10-28T13:22:27;99502.41;;;21.86;59.68
50125;BME280;36023;48.670;6.184;2022-10-28T13:27:55;99498.03;;;21.87;59.52
50125;BME280;36023;48.670;6.184;2022-10-28T13:30:21;99499.72;;;21.88;59.96
50125;BME280;36023;48.670;6.184;2022-10-28T13:32:59;99500.47;;;21.90;59.88
50125;BME280;36023;48.670;6.184;2022-10-28T13:35:26;99499.53;;;21.91;59.54
50125;BME280;36023;48.670;6.184;2022-10-28T13:37:54;99491.63;;;21.91;59.80
50125;BME280;36023;48.670;6.184;2022-10-28T13:42:58;99489.81;;;21.91;59.92
50125;BME280;36023;48.670;6.184;2022-10-28T13:56:31;99488.97;;;21.91;59.67
50125;BME280;36023;48.670;6.184;2022-10-28T13:59:26;99495.09;;;21.91;59.79
50125;BME280;36023;48.670;6.184;2022-10-28T14:01:55;99493.31;;;21.92;59.73
50125;BME280;36023;48.670;6.184;2022-10-28T14:04:36;99508.19;;;21.93;59.65
50125;BME280;36023;48.670;6.184;2022-10-28T14:09:34;99502.91;;;21.93;59.74
50125;BME280;36023;48.670;6.184;2022-10-28T14:14:36;99511.59;;;21.95;59.93
50125;BME280;36023;48.670;6.184;2022-10-28T14:17:02;99518.56;;;21.96;60.04
50125;BME280;36023;48.670;6.184;2022-10-28T14:19:28;99510.75;;;21.94;59.75
50125;BME280;36023;48.670;6.184;2022-10-28T14:21:58;99520.34;;;21.95;60.01
50125;BME280;36023;48.670;6.184;2022-10-28T14:24:32;99522.16;;;21.95;59.65
50125;BME280;36023;48.670;6.184;2022-10-28T14:29:30;99522.16;;;21.95;59.85
50125;BME280;36023;48.670;6.184;2022-10-28T14:31:56;99519.50;;;21.95;60.15
50125;BME280;36023;48.670;6.184;2022-10-28T14:34:31;99522.16;;;21.95;59.69
50125;BME280;36023;48.670;6.184;2022-10-28T14:37:10;99516.88;;;21.95;60.08
50125;BME280;36023;48.670;6.184;2022-10-28T14:39:58;99515.94;;;21.96;59.78
50125;BME280;36023;48.670;6.184;2022-10-28T14:42:40;99519.41;;;21.96;59.69
50125;BME280;36023;48.670;6.184;2022-10-28T14:50:43;99515.84;;;21.97;59.41
50125;BME280;36023;48.670;6.184;2022-10-28T14:53:32;99526.38;;;21.97;59.35
50125;BME280;36023;48.670;6.184;2022-10-28T14:56:06;99512.34;;;21.97;59.34
50125;BME280;36023;48.670;6.184;2022-10-28T14:58:39;99522.81;;;21.98;59.44
50125;BME280;36023;48.670;6.184;2022-10-28T15:03:42;99506.13;;;21.98;59.23
50125;BME280;36023;48.670;6.184;2022-10-28T15:08:48;99508.75;;;21.98;59.00
50125;BME280;36023;48.670;6.184;2022-10-28T15:11:16;99519.31;;;21.98;59.21
50125;BME280;36023;48.670;6.184;2022-10-28T15:13:42;99511.41;;;21.98;58.96
50125;BME280;36023;48.670;6.184;2022-10-28T15:16:18;99519.22;;;22.00;59.29
50125;BME280;36023;48.670;6.184;2022-10-28T15:18:52;99524.41;;;22.01;59.04
50125;BME280;36023;48.670;6.184;2022-10-28T15:21:21;99518.28;;;22.01;59.22
50125;BME280;36023;48.670;6.184;2022-10-28T15:23:59;99513.09;;;21.99;59.13
50125;BME280;36023;48.670;6.184;2022-10-28T15:26:26;99514.78;;;22.00;59.31
50125;BME280;36023;48.670;6.184;2022-10-28T15:28:53;99522.81;;;21.98;59.13
50125;BME280;36023;48.670;6.184;2022-10-28T15:31:19;99523.75;;;21.97;59.54
50125;BME280;36023;48.670;6.184;2022-10-28T15:33:45;99529.97;;;21.96;59.49
50125;BME280;36023;48.670;6.184;2022-10-28T15:38:41;99535.34;;;21.95;59.62
50125;BME280;36023;48.670;6.184;2022-10-28T15:43:55;99541.47;;;21.95;59.66
50125;BME280;36023;48.670;6.184;2022-10-28T15:46:22;99546.72;;;21.95;59.89
50125;BME280;36023;48.670;6.184;2022-10-28T15:48:52;99546.78;;;21.94;59.84
50125;BME280;36023;48.670;6.184;2022-10-28T15:51:19;99545.09;;;21.93;59.88
50125;BME280;36023;48.670;6.184;2022-10-28T15:58:42;99559.22;;;21.92;60.09
50125;BME280;36023;48.670;6.184;2022-10-28T16:01:26;99551.41;;;21.90;59.95